createdAt,value
2019-01-31T00:01:25.192Z,68.90
2019-01-31T00:04:55.047Z,68.53
2019-01-31T00:08:46.087Z,68.50
2019-01-31T00:11:47.819Z,68.79
2019-01-31T00:14:50.751Z,69.09
2019-01-31T00:18:18.890Z,69.43
2019-01-31T00:21:12.487Z,70.06
2019-01-31T00:24:35.198Z,69.99
2019-01-31T00:28:09.159Z,70.23
2019-01-31T00:31:37.101Z,70.17
2019-01-31T00:34:54.399Z,70.31
2019-01-31T00:38:26.069Z,70.32
2019-01-31T00:41:33.367Z,70.08
2019-01-31T00:44:31.446Z,70.20
2019-01-31T00:48:00.123Z,70.28
2019-01-31T00:51:04.457Z,70.65
2019-01-31T00:54:32.173Z,70.44
2019-01-31T00:57:46.499Z,70.82
2019-01-31T01:01:18.457Z,70.94
2019-01-31T01:04:47.766Z,71.05
2019-01-31T01:08:25.592Z,71.30
2019-01-31T01:11:29.867Z,71.42
2019-01-31T01:14:28.781Z,71.69
2019-01-31T01:17:28.187Z,72.45
2019-01-31T01:20:41.240Z,72.74
2019-01-31T01:23:59.150Z,72.32
2019-01-31T01:27:21.702Z,72.30
2019-01-31T01:30:52.018Z,72.14
2019-01-31T01:34:24.151Z,72.14
2019-01-31T01:37:18.911Z,72.37
2019-01-31T01:40:24.603Z,72.22
2019-01-31T01:43:56.658Z,72.55
2019-01-31T01:47:11.166Z,72.86
2019-01-31T01:49:54.614Z,72.91
2019-01-31T01:52:56.773Z,73.22
2019-01-31T01:56:16.339Z,72.82
2019-01-31T01:59:25.069Z,72.87
2019-01-31T02:03:08.887Z,73.05
2019-01-31T02:06:48.466Z,72.83
2019-01-31T02:09:56.404Z,72.72
2019-01-31T02:13:32.238Z,72.91
2019-01-31T02:17:00.396Z,72.69
2019-01-31T02:20:30.076Z,72.78
2019-01-31T02:24:11.458Z,72.70
2019-01-31T02:27:42.128Z,72.79
2019-01-31T02:31:19.766Z,72.19
2019-01-31T02:34:31.668Z,72.34
2019-01-31T02:37:41.314Z,72.28
2019-01-31T02:40:45.525Z,72.08
2019-01-31T02:44:41.418Z,72.47
2019-01-31T02:48:42.516Z,72.25
2019-01-31T02:52:01.560Z,72.19
2019-01-31T02:55:39.048Z,72.03
2019-01-31T02:58:53.722Z,71.92
2019-01-31T03:02:17.919Z,71.69
2019-01-31T03:05:30.313Z,72.06
2019-01-31T03:08:32.983Z,71.47
2019-01-31T03:11:38.034Z,71.34
2019-01-31T03:14:48.792Z,71.17
2019-01-31T03:18:20.421Z,70.81
2019-01-31T03:21:24.942Z,70.59
2019-01-31T03:24:58.334Z,70.84
2019-01-31T03:28:01.775Z,70.46
2019-01-31T03:31:28.157Z,68.41
2019-01-31T03:35:02.725Z,69.15
2019-01-31T03:38:37.695Z,69.78
2019-01-31T03:41:46.232Z,69.71
2019-01-31T03:44:50.222Z,70.32
2019-01-31T03:48:26.128Z,70.39
2019-01-31T03:51:40.867Z,71.21
2019-01-31T03:55:18.788Z,70.47
2019-01-31T03:58:30.992Z,69.15
2019-01-31T04:02:00.709Z,68.54
2019-01-31T04:05:03.056Z,68.46
2019-01-31T04:07:34.502Z,68.07
2019-01-31T04:10:18.372Z,68.42
2019-01-31T04:12:40.616Z,68.80
2019-01-31T04:15:12.170Z,68.77
2019-01-31T04:17:43.612Z,68.31
2019-01-31T04:20:15.138Z,68.44
2019-01-31T04:22:46.578Z,68.18
2019-01-31T04:25:18.007Z,68.18
2019-01-31T04:27:49.465Z,68.41
2019-01-31T04:30:21.020Z,69.14
2019-01-31T04:32:52.489Z,69.49
2019-01-31T04:35:23.930Z,69.61
2019-01-31T04:37:55.374Z,69.48
2019-01-31T04:40:31.429Z,70.21
2019-01-31T04:42:59.952Z,71.15
2019-01-31T04:45:31.380Z,70.92
2019-01-31T04:48:04.506Z,70.89
2019-01-31T04:50:35.930Z,71.33
2019-01-31T04:53:07.301Z,71.00
2019-01-31T04:55:38.715Z,70.92
2019-01-31T04:58:10.284Z,71.41
2019-01-31T05:00:41.808Z,71.67
2019-01-31T05:03:13.259Z,71.92
2019-01-31T05:05:44.689Z,71.85
2019-01-31T05:08:16.127Z,71.94
2019-01-31T05:10:47.554Z,71.77
2019-01-31T05:13:19.007Z,72.50
2019-01-31T05:15:50.455Z,72.51
2019-01-31T05:18:21.967Z,72.38
2019-01-31T05:20:53.454Z,73.76
2019-01-31T05:23:24.900Z,72.98
2019-01-31T05:25:56.334Z,74.46
2019-01-31T05:28:27.755Z,75.27
2019-01-31T05:30:59.197Z,74.87
2019-01-31T05:33:30.628Z,74.37
2019-01-31T05:36:02.068Z,74.29
2019-01-31T05:38:33.537Z,74.83
2019-01-31T05:41:04.989Z,74.99
2019-01-31T05:43:36.432Z,75.18
2019-01-31T05:46:07.882Z,75.09
2019-01-31T05:48:39.337Z,74.58
2019-01-31T05:51:10.783Z,74.98
2019-01-31T05:53:42.266Z,75.31
2019-01-31T05:56:13.703Z,75.36
2019-01-31T05:58:45.162Z,75.14
2019-01-31T06:01:16.674Z,74.91
2019-01-31T06:03:48.222Z,75.06
2019-01-31T06:06:19.769Z,75.47
2019-01-31T06:08:51.258Z,75.88
2019-01-31T06:11:22.697Z,75.95
2019-01-31T06:13:54.178Z,75.66
2019-01-31T06:16:25.643Z,76.27
2019-01-31T06:18:57.130Z,75.86
2019-01-31T06:21:28.569Z,75.83
2019-01-31T06:24:00.049Z,76.71
2019-01-31T06:26:31.480Z,76.81
2019-01-31T06:29:03.001Z,77.66
2019-01-31T06:31:34.417Z,77.31
2019-01-31T06:34:06.001Z,77.32
2019-01-31T06:36:37.378Z,76.79
2019-01-31T06:39:10.259Z,77.09
2019-01-31T06:41:41.687Z,76.43
2019-01-31T06:44:13.172Z,76.47
2019-01-31T06:46:44.624Z,76.37
2019-01-31T06:49:16.135Z,76.52
2019-01-31T06:51:47.573Z,76.27
2019-01-31T06:54:19.091Z,77.17
2019-01-31T06:56:51.608Z,76.72
2019-01-31T06:59:23.091Z,76.83
2019-01-31T07:01:54.564Z,76.53
2019-01-31T07:04:26.157Z,76.48
2019-01-31T07:06:57.625Z,76.11
2019-01-31T07:09:29.165Z,74.96
2019-01-31T07:12:00.601Z,73.19
2019-01-31T07:14:33.773Z,71.48
2019-01-31T07:17:05.266Z,70.56
2019-01-31T07:19:36.693Z,69.72
2019-01-31T07:22:08.143Z,71.42
2019-01-31T07:24:39.605Z,72.42
2019-01-31T07:27:11.229Z,71.80
2019-01-31T07:29:43.938Z,71.61
2019-01-31T07:32:15.381Z,69.94
2019-01-31T07:34:46.820Z,70.94
2019-01-31T07:37:18.298Z,70.97
2019-01-31T07:39:49.764Z,70.88
2019-01-31T07:42:21.216Z,69.94
2019-01-31T07:44:53.095Z,68.74
2019-01-31T07:47:24.515Z,68.19
2019-01-31T07:49:56.074Z,65.55
2019-01-31T07:52:27.534Z,64.59
2019-01-31T07:55:01.898Z,65.31
2019-01-31T07:57:32.211Z,66.64
2019-01-31T08:00:04.787Z,66.61
2019-01-31T08:02:36.196Z,67.53
2019-01-31T08:05:11.089Z,68.71
2019-01-31T08:07:43.673Z,68.36
2019-01-31T08:10:19.085Z,68.23
2019-01-31T08:12:50.649Z,68.10
2019-01-31T08:15:22.114Z,67.98
2019-01-31T08:17:53.569Z,67.62
2019-01-31T08:20:25.103Z,66.90
2019-01-31T08:22:56.521Z,64.54
2019-01-31T08:25:28.121Z,62.35
2019-01-31T08:27:59.967Z,65.80
2019-01-31T08:30:37.785Z,65.32
2019-01-31T08:33:08.543Z,64.08
2019-01-31T08:35:40.112Z,64.66
2019-01-31T08:38:11.823Z,63.94
2019-01-31T08:40:43.587Z,61.69
2019-01-31T08:43:15.025Z,62.99
2019-01-31T08:45:46.594Z,64.80
2019-01-31T08:48:18.067Z,65.11
2019-01-31T08:50:49.563Z,63.07
2019-01-31T08:53:21.006Z,61.57
2019-01-31T08:55:52.539Z,62.19
2019-01-31T08:58:23.992Z,63.45
2019-01-31T09:00:55.440Z,63.58
2019-01-31T09:03:27.022Z,63.18
2019-01-31T09:05:58.578Z,62.00
2019-01-31T09:08:30.138Z,62.32
2019-01-31T09:11:01.614Z,61.97
2019-01-31T09:13:33.223Z,61.47
2019-01-31T09:16:06.930Z,60.24
2019-01-31T09:18:38.380Z,58.19
2019-01-31T09:21:47.379Z,48.10
2019-01-31T09:25:13.986Z,52.34
2019-01-31T09:28:36.050Z,55.17
2019-01-31T09:31:47.229Z,48.86
2019-01-31T09:35:19.665Z,51.91
2019-01-31T09:38:50.212Z,52.79
2019-01-31T09:42:33.751Z,52.40
2019-01-31T09:45:37.420Z,53.05
2019-01-31T09:48:44.235Z,53.87
2019-01-31T09:52:09.016Z,51.61
2019-01-31T09:55:44.362Z,50.98
2019-01-31T09:58:30.380Z,48.87
2019-01-31T10:02:14.445Z,48.22
2019-01-31T10:05:10.325Z,48.27
2019-01-31T10:08:05.422Z,48.54
2019-01-31T10:11:36.745Z,48.99
2019-01-31T10:14:50.209Z,47.13
2019-01-31T10:18:09.160Z,49.21
2019-01-31T10:21:14.457Z,45.93
2019-01-31T10:24:45.483Z,43.17
2019-01-31T10:28:12.929Z,46.43
2019-01-31T10:31:52.558Z,46.63
2019-01-31T10:35:33.162Z,46.07
2019-01-31T10:38:59.559Z,47.19
2019-01-31T10:42:30.340Z,49.17
2019-01-31T10:45:48.874Z,48.62
2019-01-31T10:49:11.832Z,50.18
2019-01-31T10:52:58.549Z,50.50
2019-01-31T10:56:34.825Z,50.51
2019-01-31T10:59:59.979Z,49.61
2019-01-31T11:03:18.818Z,49.68
2019-01-31T11:06:34.220Z,49.98
2019-01-31T11:09:53.268Z,49.20
2019-01-31T11:13:27.236Z,48.27
2019-01-31T11:16:26.420Z,47.74
2019-01-31T11:19:38.558Z,47.23
2019-01-31T11:22:48.818Z,46.24
2019-01-31T11:26:44.752Z,46.29
2019-01-31T11:30:01.365Z,46.62
2019-01-31T11:33:29.403Z,46.95
2019-01-31T11:36:42.617Z,46.38
2019-01-31T11:39:41.992Z,46.21
2019-01-31T11:42:58.260Z,47.19
2019-01-31T11:46:22.557Z,47.26
2019-01-31T11:49:31.098Z,46.33
2019-01-31T11:52:32.037Z,46.55
2019-01-31T11:56:15.654Z,47.03
2019-01-31T11:58:53.410Z,46.25
2019-01-31T12:01:24.956Z,45.96
2019-01-31T12:04:12.744Z,45.72
2019-01-31T12:06:44.204Z,44.71
2019-01-31T12:09:21.516Z,45.61
2019-01-31T12:11:53.558Z,44.03
2019-01-31T12:14:24.977Z,44.90
2019-01-31T12:16:56.409Z,44.38
2019-01-31T12:19:27.892Z,45.53
2019-01-31T12:21:59.320Z,44.92
2019-01-31T12:24:30.844Z,44.99
2019-01-31T12:27:02.374Z,44.65
2019-01-31T12:29:33.868Z,44.40
2019-01-31T12:32:05.317Z,44.97
2019-01-31T12:34:36.738Z,44.79
2019-01-31T12:37:08.220Z,44.67
2019-01-31T12:39:39.621Z,44.12
2019-01-31T12:42:11.105Z,43.40
2019-01-31T12:44:42.715Z,43.12
2019-01-31T12:47:14.158Z,42.44
2019-01-31T12:49:45.670Z,43.65
2019-01-31T12:52:17.127Z,44.02
2019-01-31T12:54:48.589Z,44.13
2019-01-31T12:57:20.217Z,44.39
2019-01-31T12:59:51.670Z,44.28
2019-01-31T13:02:23.123Z,43.60
2019-01-31T13:04:56.174Z,45.68
2019-01-31T13:07:27.759Z,44.11
2019-01-31T13:09:59.216Z,43.50
2019-01-31T13:12:30.712Z,44.47
2019-01-31T13:15:02.557Z,44.05
2019-01-31T13:17:34.639Z,44.30
2019-01-31T13:20:13.895Z,43.39
2019-01-31T13:22:45.410Z,43.85
2019-01-31T13:25:18.297Z,43.43
2019-01-31T13:27:49.771Z,43.48
2019-01-31T13:30:22.282Z,43.34
2019-01-31T13:32:55.533Z,43.77
2019-01-31T13:35:27.002Z,44.29
2019-01-31T13:37:58.536Z,43.43
2019-01-31T13:40:29.947Z,44.02
2019-01-31T13:43:01.547Z,43.69
2019-01-31T13:45:38.231Z,44.75
2019-01-31T13:48:13.505Z,43.38
2019-01-31T13:50:45.083Z,42.58
2019-01-31T13:53:16.588Z,42.91
2019-01-31T13:55:48.163Z,43.81
2019-01-31T13:58:20.545Z,44.75
2019-01-31T14:00:51.991Z,43.81
2019-01-31T14:03:23.921Z,44.68
2019-01-31T14:05:55.383Z,43.68
2019-01-31T14:08:26.877Z,43.55
2019-01-31T14:10:58.331Z,44.78
2019-01-31T14:13:29.858Z,44.11
2019-01-31T14:16:01.401Z,44.36
2019-01-31T14:18:34.004Z,44.84
2019-01-31T14:21:05.485Z,45.34
2019-01-31T14:23:37.178Z,46.21
2019-01-31T14:26:08.599Z,47.49
2019-01-31T14:28:40.074Z,47.02
2019-01-31T14:31:11.556Z,46.52
2019-01-31T14:33:43.098Z,46.64
2019-01-31T14:36:14.531Z,46.18
2019-01-31T14:38:46.095Z,45.55
2019-01-31T14:41:17.574Z,45.76
2019-01-31T14:43:48.992Z,45.38
2019-01-31T14:46:20.546Z,45.32
2019-01-31T14:48:52.095Z,46.49
2019-01-31T14:51:23.644Z,47.38
2019-01-31T14:53:55.255Z,47.77
2019-01-31T14:56:26.665Z,47.22
2019-01-31T14:58:58.396Z,47.58
2019-01-31T15:01:29.907Z,46.95
2019-01-31T15:04:01.380Z,47.27
2019-01-31T15:06:32.837Z,48.26
2019-01-31T15:09:08.742Z,47.63
2019-01-31T15:11:40.031Z,48.14
2019-01-31T15:14:11.593Z,48.49
2019-01-31T15:16:43.014Z,48.14
2019-01-31T15:19:17.138Z,48.74
2019-01-31T15:21:48.519Z,47.70
2019-01-31T15:24:19.974Z,47.45
2019-01-31T15:26:52.431Z,48.21
2019-01-31T15:29:25.492Z,48.80
2019-01-31T15:31:56.991Z,49.11
2019-01-31T15:34:28.455Z,49.53
2019-01-31T15:37:02.078Z,48.59
2019-01-31T15:39:33.071Z,48.33
2019-01-31T15:42:04.480Z,49.25
2019-01-31T15:44:43.071Z,49.49
2019-01-31T15:47:09.198Z,50.52
2019-01-31T15:49:40.642Z,51.14
2019-01-31T15:52:12.041Z,49.79
2019-01-31T15:54:43.703Z,49.42
2019-01-31T15:57:16.718Z,50.28
2019-01-31T15:59:48.483Z,51.43
2019-01-31T16:02:21.405Z,51.05
2019-01-31T16:04:54.618Z,50.57
2019-01-31T16:07:26.062Z,51.64
2019-01-31T16:09:57.470Z,51.61
2019-01-31T16:12:28.862Z,52.45
2019-01-31T16:15:00.551Z,51.80
2019-01-31T16:17:32.068Z,50.97
2019-01-31T16:20:03.527Z,51.22
2019-01-31T16:22:34.947Z,52.26
2019-01-31T16:25:06.759Z,49.88
2019-01-31T16:27:38.228Z,50.46
2019-01-31T16:30:12.281Z,50.75
2019-01-31T16:32:43.768Z,51.79
2019-01-31T16:35:15.730Z,52.42
2019-01-31T16:37:50.538Z,53.75
2019-01-31T16:40:22.088Z,54.66
2019-01-31T16:42:53.507Z,55.03
2019-01-31T16:45:25.037Z,55.61
2019-01-31T16:47:56.593Z,56.70
2019-01-31T16:50:28.102Z,57.49
2019-01-31T16:52:59.455Z,57.78
2019-01-31T16:55:30.974Z,58.52
2019-01-31T16:58:02.490Z,57.89
2019-01-31T17:00:35.439Z,56.63
2019-01-31T17:03:07.973Z,56.96
2019-01-31T17:05:39.450Z,57.11
2019-01-31T17:08:11.243Z,56.92
2019-01-31T17:10:42.705Z,56.94
2019-01-31T17:13:14.192Z,57.61
2019-01-31T17:15:45.648Z,58.16
2019-01-31T17:18:17.147Z,59.28
2019-01-31T17:20:48.795Z,59.65
2019-01-31T17:23:21.331Z,59.29
2019-01-31T17:25:52.849Z,59.29
2019-01-31T17:28:24.396Z,59.07
2019-01-31T17:30:55.934Z,58.42
2019-01-31T17:33:27.423Z,58.18
2019-01-31T17:35:58.922Z,58.29
2019-01-31T17:38:33.019Z,58.28
2019-01-31T17:41:03.542Z,57.76
2019-01-31T17:43:34.967Z,57.72
2019-01-31T17:46:08.075Z,57.20
2019-01-31T17:48:39.519Z,57.59
2019-01-31T17:51:12.614Z,57.87
2019-01-31T17:53:45.041Z,58.99
2019-01-31T17:56:16.546Z,58.83
2019-01-31T17:58:47.993Z,59.30
2019-01-31T18:01:19.492Z,58.30
2019-01-31T18:03:50.951Z,57.17
2019-01-31T18:06:22.419Z,58.89
2019-01-31T18:08:53.857Z,58.86
2019-01-31T18:11:25.389Z,58.20
2019-01-31T18:13:56.827Z,57.92
2019-01-31T18:16:28.380Z,57.50
2019-01-31T18:18:59.833Z,57.27
2019-01-31T18:21:31.261Z,56.76
2019-01-31T18:24:02.846Z,57.81
2019-01-31T18:26:34.295Z,57.77
2019-01-31T18:29:05.859Z,57.50
2019-01-31T18:31:37.341Z,55.94
2019-01-31T18:34:08.775Z,54.95
2019-01-31T18:36:40.245Z,57.06
2019-01-31T18:39:12.185Z,55.89
2019-01-31T18:41:43.711Z,57.18
2019-01-31T18:44:16.329Z,56.85
2019-01-31T18:46:47.803Z,56.10
2019-01-31T18:49:19.237Z,57.57
2019-01-31T18:51:51.760Z,56.82
2019-01-31T18:54:23.152Z,57.78
2019-01-31T18:56:54.669Z,58.11
2019-01-31T18:59:26.151Z,58.01
2019-01-31T19:01:57.636Z,58.87
2019-01-31T19:04:29.076Z,58.81
2019-01-31T19:07:00.544Z,57.70
2019-01-31T19:09:32.053Z,57.69
2019-01-31T19:12:03.507Z,57.18
2019-01-31T19:14:36.515Z,58.18
2019-01-31T19:17:07.968Z,58.81
2019-01-31T19:19:39.498Z,58.18
2019-01-31T19:22:12.041Z,58.33
2019-01-31T19:24:43.918Z,58.08
2019-01-31T19:27:15.361Z,58.18
2019-01-31T19:29:47.088Z,58.46
2019-01-31T19:32:18.598Z,57.36
2019-01-31T19:34:50.053Z,58.67
2019-01-31T19:37:21.525Z,58.61
2019-01-31T19:39:53.044Z,58.52
2019-01-31T19:42:24.606Z,58.82
2019-01-31T19:44:56.268Z,57.87
2019-01-31T19:47:27.697Z,58.91
2019-01-31T19:49:59.150Z,58.39
2019-01-31T19:52:30.592Z,58.11
2019-01-31T19:55:02.101Z,58.40
2019-01-31T19:57:33.626Z,59.25
2019-01-31T20:00:07.109Z,58.84
2019-01-31T20:02:39.551Z,58.11
2019-01-31T20:05:11.561Z,58.67
2019-01-31T20:07:43.349Z,58.62
2019-01-31T20:10:20.907Z,59.18
2019-01-31T20:12:52.429Z,59.30
2019-01-31T20:15:23.959Z,59.07
2019-01-31T20:17:55.425Z,59.46
2019-01-31T20:20:28.107Z,58.63
2019-01-31T20:23:00.173Z,58.96
2019-01-31T20:25:31.994Z,59.21
2019-01-31T20:28:03.569Z,59.35
2019-01-31T20:30:36.643Z,60.07
2019-01-31T20:33:08.218Z,60.68
2019-01-31T20:35:39.997Z,60.10
2019-01-31T20:38:14.303Z,59.60
2019-01-31T20:40:45.911Z,59.50
2019-01-31T20:43:17.648Z,58.89
2019-01-31T20:45:49.173Z,57.88
2019-01-31T20:48:23.087Z,58.43
2019-01-31T20:50:56.288Z,59.81
2019-01-31T20:53:27.735Z,58.65
2019-01-31T20:55:59.177Z,57.91
2019-01-31T20:58:30.734Z,57.89
2019-01-31T21:01:02.172Z,58.02
2019-01-31T21:03:36.080Z,59.20
2019-01-31T21:06:07.607Z,58.54
2019-01-31T21:08:39.111Z,58.09
2019-01-31T21:11:10.555Z,58.39
2019-01-31T21:13:42.019Z,58.33
2019-01-31T21:16:14.503Z,58.01
2019-01-31T21:18:45.951Z,58.08
2019-01-31T21:21:17.360Z,58.53
2019-01-31T21:23:48.831Z,58.19
2019-01-31T21:26:20.267Z,57.90
2019-01-31T21:28:51.707Z,58.76
2019-01-31T21:31:23.153Z,59.24
2019-01-31T21:33:54.623Z,58.42
2019-01-31T21:36:26.099Z,59.29
2019-01-31T21:38:57.541Z,59.73
2019-01-31T21:41:28.969Z,60.18
2019-01-31T21:44:00.403Z,60.23
2019-01-31T21:46:31.817Z,60.14
2019-01-31T21:49:03.308Z,60.17
2019-01-31T21:51:34.748Z,59.48
2019-01-31T21:54:08.360Z,59.97
2019-01-31T21:56:39.440Z,59.61
2019-01-31T21:59:10.894Z,59.33
2019-01-31T22:01:42.304Z,59.72
2019-01-31T22:04:13.894Z,59.88
2019-01-31T22:06:45.316Z,60.51
2019-01-31T22:09:16.806Z,59.80
2019-01-31T22:11:48.240Z,59.92
2019-01-31T22:14:19.681Z,59.78
2019-01-31T22:16:51.113Z,59.65
2019-01-31T22:19:22.539Z,60.39
2019-01-31T22:21:53.952Z,59.76
2019-01-31T22:24:25.404Z,59.88
2019-01-31T22:26:56.839Z,59.32
2019-01-31T22:29:28.283Z,59.98
2019-01-31T22:31:59.659Z,59.81
2019-01-31T22:34:32.316Z,58.92
2019-01-31T22:37:03.727Z,59.21
2019-01-31T22:39:35.126Z,59.48
2019-01-31T22:42:06.564Z,58.14
2019-01-31T22:44:38.091Z,58.55
2019-01-31T22:47:09.498Z,58.98
2019-01-31T22:49:40.948Z,59.32
2019-01-31T22:52:12.373Z,59.35
2019-01-31T22:54:43.815Z,59.17
2019-01-31T22:57:15.238Z,59.10
2019-01-31T22:59:46.784Z,57.54
2019-01-31T23:02:18.183Z,58.04
2019-01-31T23:04:49.703Z,57.71
2019-01-31T23:07:21.126Z,57.26
2019-01-31T23:09:52.602Z,58.23
2019-01-31T23:12:24.062Z,58.68
2019-01-31T23:14:55.492Z,59.08
2019-01-31T23:17:36.682Z,58.81
2019-01-31T23:20:00.088Z,58.85
2019-01-31T23:22:31.550Z,58.11
2019-01-31T23:25:02.998Z,56.89
2019-01-31T23:27:34.415Z,57.39
2019-01-31T23:30:07.959Z,57.58
2019-01-31T23:32:39.449Z,58.02
2019-01-31T23:35:11.117Z,57.67
2019-01-31T23:37:42.540Z,57.71
2019-01-31T23:40:14.005Z,57.84
2019-01-31T23:42:45.933Z,57.36
2019-01-31T23:45:17.287Z,55.63
2019-01-31T23:47:49.354Z,57.45
2019-01-31T23:50:20.837Z,56.28
2019-01-31T23:52:54.615Z,56.09
2019-01-31T23:55:26.108Z,56.54
2019-01-31T23:57:57.536Z,55.31
